Track Софьянов Вячеслав

Time Latitude Longitude Accuracy (66% radius in meters) Altitude (meters) Speed (km/hour) Bearing (degrees) Battery (%) GPS flag
11:14:52 59.862757 30.133119 0 0 0 0 1 delete
11:14:34 59.862759 30.133132 0 0 0 0 1 delete
11:14:10 59.862749 30.133121 0 0 0 0 1 delete
11:14:01 59.862753 30.133125 0 0 0 0 1 delete
11:13:56 59.862765 30.133117 0 0 0 0 1 delete
11:13:31 59.862768 30.133098 0 0 0 0 1 delete
11:13:25 59.862761 30.133100 0 0 0 0 1 delete
11:13:23 59.862764 30.133096 0 0 0 0 1 delete
11:13:21 59.862755 30.133128 0 0 0 0 1 delete
11:13:09 59.862769 30.133171 0 0 0 0 1 delete
11:12:49 59.862764 30.133160 0 0 0 0 1 delete
11:12:39 59.862759 30.133165 0 0 0 0 1 delete
11:12:37 59.862769 30.133177 0 0 0 0 1 delete
11:12:35 59.862785 30.133149 0 0 0 0 1 delete
11:12:29 59.862779 30.133106 0 0 0 0 1 delete
11:12:22 59.862771 30.133078 0 0 0 0 1 delete
11:12:17 59.862767 30.133081 0 0 0 0 1 delete
11:11:35 59.862773 30.133084 0 0 0 0 1 delete
11:11:29 59.862789 30.133090 0 0 0 0 1 delete
11:11:22 59.862823 30.133070 0 0 0 0 1 delete
11:11:13 59.862847 30.133057 0 0 0 0 1 delete
11:11:08 59.862856 30.133056 0 0 0 0 1 delete
11:11:02 59.862885 30.133053 0 0 0 0 1 delete
11:10:55 59.862916 30.133042 0 0 0 0 1 delete
11:10:47 59.862960 30.133040 0 0 0 0 1 delete
11:10:39 59.862989 30.133049 0 0 0 0 1 delete
11:10:33 59.863003 30.133086 0 0 0 0 1 delete
11:10:28 59.862993 30.133124 0 0 0 0 1 delete
11:10:24 59.862979 30.133125 0 0 0 0 1 delete
11:10:21 59.862965 30.133140 0 0 0 0 1 delete
11:10:19 59.862952 30.133160 0 0 0 0 1 delete
11:10:16 59.862920 30.133159 0 0 0 0 1 delete
11:10:15 59.862913 30.133183 0 0 0 0 1 delete
11:10:10 59.862919 30.133154 0 0 0 0 1 delete
11:10:06 59.862912 30.133118 0 0 0 0 1 delete
11:10:02 59.862906 30.133186 0 0 0 0 1 delete
11:09:55 59.862968 30.133145 0 0 0 0 1 delete
11:09:51 59.862986 30.133131 0 0 0 0 1 delete
11:09:41 59.862991 30.133147 0 0 0 0 1 delete
11:09:27 59.863002 30.133157 0 0 0 0 1 delete
11:09:18 59.863013 30.133167 0 0 0 0 1 delete
11:08:46 59.862999 30.133169 0 0 0 0 1 delete
11:08:20 59.862989 30.133170 0 0 0 0 1 delete
11:08:11 59.862990 30.133163 0 0 0 0 1 delete
11:08:01 59.862975 30.133158 0 0 0 0 1 delete
11:07:56 59.862974 30.133162 0 0 0 0 1 delete
11:07:49 59.862971 30.133164 0 0 0 0 1 delete
11:07:45 59.862962 30.133152 0 0 0 0 1 delete
11:07:38 59.862955 30.133162 0 0 0 0 1 delete
11:07:28 59.862946 30.133162 0 0 0 0 1 delete